Date,TemperatureHighF,TemperatureAvgF,TemperatureLowF,DewpointHighF,DewpointAvgF,DewpointLowF,HumidityHigh,HumidityAvg,HumidityLow,PressureMaxIn,PressureMinIn,WindSpeedMaxMPH,WindSpeedAvgMPH,GustSpeedMaxMPH,PrecipitationSumIn
2013-1-1,40.0,37.4,30.0,30.0,27.1,17.0,71,66,57,30.01,29.82,12,2,14,0.00
2013-1-2,34.0,27.6,22.0,18.0,15.5,13.0,77,60,44,30.21,29.97,10,2,17,0.00
2013-1-3,34.0,26.8,19.0,19.0,16.1,13.0,83,65,42,30.21,30.08,8,1,14,0.00
2013-1-4,38.0,33.6,26.0,23.0,20.9,19.0,74,59,50,30.11,29.97,16,4,22,0.00
2013-1-5,42.0,33.4,27.0,24.0,20.8,18.0,81,60,43,30.31,30.04,10,2,17,0.00
2013-1-6,49.0,38.5,30.0,34.0,28.0,24.0,91,68,38,30.21,29.95,10,1,17,0.01
2013-1-7,47.0,37.8,24.0,30.0,26.6,21.0,88,65,43,30.39,30.04,7,2,14,0.01
2013-1-8,50.0,32.9,21.0,32.0,25.4,18.0,92,76,47,30.42,30.32,10,1,12,0.00
2013-1-9,49.0,35.9,24.0,38.0,30.2,22.0,92,81,63,30.38,30.12,7,1,10,0.00
2013-1-10,51.0,41.3,32.0,33.0,27.0,25.0,82,58,38,30.51,30.24,11,2,15,0.00
2013-1-11,45.0,38.0,29.0,43.0,33.7,26.0,96,84,69,30.50,30.04,5,1,9,0.42
2013-1-12,50.0,43.5,38.0,46.0,42.4,36.0,100,96,82,30.14,30.04,2,0,5,0.27
2013-1-13,48.0,45.1,42.0,48.0,44.9,41.0,100,99,96,30.11,29.94,4,1,9,0.02
2013-1-14,52.0,48.6,40.0,52.0,44.7,30.0,100,88,50,30.25,29.88,9,1,10,0.07
2013-1-15,40.0,37.2,34.0,38.0,30.2,26.0,92,76,65,30.32,30.19,5,1,9,0.15
2013-1-16,34.0,33.2,33.0,32.0,31.1,31.0,93,92,90,30.17,30.10,3,2,6,0.41
2013-1-19,45.0,43.5,42.0,30.0,28.3,27.0,61,55,50,30.01,29.88,10,5,16,0.00
2013-1-20,56.0,42.7,30.0,30.0,22.4,10.0,68,46,24,30.03,29.67,17,5,27,0.00
2013-1-21,32.0,27.3,21.0,23.0,12.9,8.0,82,55,42,30.09,29.84,13,2,16,0.00
2013-1-22,25.0,18.2,13.0,10.0,-1.8,-7.0,56,41,27,30.27,29.87,23,6,30,0.00
2013-1-23,21.0,14.0,9.0,5.0,-0.5,-4.0,80,53,35,30.30,30.19,15,2,17,0.00
2013-1-24,25.0,17.7,10.0,9.0,2.8,-5.0,84,55,29,30.48,30.14,13,2,23,0.00
2013-1-25,22.0,15.8,6.0,14.0,4.2,-2.0,85,61,41,30.49,30.11,7,1,17,0.00
2013-1-26,28.0,17.6,7.0,14.0,8.1,3.0,87,68,43,30.43,30.10,7,1,16,0.02
2013-1-27,36.0,20.1,5.0,16.0,10.0,0.0,85,67,40,30.57,30.42,14,1,14,0.01
2013-1-28,35.0,29.9,18.0,34.0,26.7,13.0,96,88,74,30.51,30.01,7,1,12,0.19
2013-1-29,51.0,42.3,32.0,45.0,39.7,31.0,99,91,79,30.11,29.98,4,0,6,0.01
2013-1-30,67.0,53.0,40.0,59.0,50.3,38.0,100,91,73,29.99,29.23,15,3,26,0.57
2013-1-31,56.0,38.6,28.0,55.0,21.0,10.0,97,50,34,29.81,29.21,28,8,34,1.41